createdAt,value
2023-01-08T00:01:58.060Z,13.20
2023-01-08T00:04:27.539Z,13.20
2023-01-08T00:06:57.986Z,13.20
2023-01-08T00:09:26.645Z,13.20
2023-01-08T00:11:58.961Z,13.20
2023-01-08T00:14:27.859Z,13.20
2023-01-08T00:17:00.005Z,13.20
2023-01-08T00:19:34.169Z,13.30
2023-01-08T00:22:08.015Z,13.20
2023-01-08T00:24:40.550Z,13.30
2023-01-08T00:27:10.570Z,13.30
2023-01-08T00:29:40.148Z,13.30
2023-01-08T00:32:09.467Z,13.30
2023-01-08T00:34:38.473Z,13.30
2023-01-08T00:37:05.758Z,13.30
2023-01-08T00:39:40.318Z,13.30
2023-01-08T00:42:09.885Z,13.30
2023-01-08T00:44:41.770Z,13.30
2023-01-08T00:47:14.301Z,13.30
2023-01-08T00:49:43.271Z,13.30
2023-01-08T00:52:18.889Z,13.40
2023-01-08T00:54:48.417Z,13.40
2023-01-08T00:57:17.840Z,13.30
2023-01-08T00:59:54.538Z,13.40
2023-01-08T01:02:28.503Z,13.40
2023-01-08T01:04:58.411Z,13.50
2023-01-08T01:07:28.821Z,13.40
2023-01-08T01:10:00.245Z,13.40
2023-01-08T01:12:37.982Z,13.40
2023-01-08T01:15:16.216Z,13.50
2023-01-08T01:17:49.320Z,13.50
2023-01-08T01:20:31.424Z,13.50
2023-01-08T01:23:00.898Z,13.50
2023-01-08T01:25:30.505Z,13.50
2023-01-08T01:28:06.052Z,13.60
2023-01-08T01:30:35.622Z,13.60
2023-01-08T01:33:04.607Z,13.60
2023-01-08T01:35:43.133Z,13.60
2023-01-08T01:38:17.503Z,13.60
2023-01-08T01:40:47.497Z,13.70
2023-01-08T01:43:19.534Z,13.70
2023-01-08T01:45:53.840Z,13.70
2023-01-08T01:48:24.002Z,13.70
2023-01-08T01:51:01.900Z,13.80
2023-01-08T01:53:35.798Z,13.80
2023-01-08T01:58:53.320Z,13.80
2023-01-08T02:01:26.162Z,13.80
2023-01-08T02:03:56.355Z,13.80
2023-01-08T02:06:41.186Z,13.80
2023-01-08T02:09:30.847Z,13.80
2023-01-08T02:12:44.055Z,13.80
2023-01-08T02:15:31.389Z,13.80
2023-01-08T02:18:18.739Z,13.90
2023-01-08T02:21:07.731Z,13.90
2023-01-08T02:23:44.679Z,13.90
2023-01-08T02:26:25.703Z,13.90
2023-01-08T02:29:14.175Z,13.90
2023-01-08T02:31:55.148Z,13.90
2023-01-08T02:34:25.228Z,13.90
2023-01-08T02:36:59.720Z,14.00
2023-01-08T02:40:18.608Z,14.00
2023-01-08T02:43:26.934Z,14.00
2023-01-08T02:46:06.503Z,14.00
2023-01-08T02:48:53.623Z,14.00
2023-01-08T02:51:29.099Z,14.10
2023-01-08T02:54:03.911Z,14.10
2023-01-08T02:56:38.496Z,14.10
2023-01-08T02:59:12.655Z,14.10
2023-01-08T03:01:48.440Z,14.10
2023-01-08T03:04:26.294Z,14.10
2023-01-08T03:06:55.616Z,14.20
2023-01-08T03:09:29.186Z,14.20
2023-01-08T03:12:21.681Z,14.20
2023-01-08T03:15:07.797Z,14.20
2023-01-08T03:17:44.732Z,14.20
2023-01-08T03:20:30.515Z,14.30
2023-01-08T03:23:05.645Z,14.30
2023-01-08T03:25:40.350Z,14.20
2023-01-08T03:28:26.888Z,14.30
2023-01-08T03:31:00.535Z,14.30
2023-01-08T03:33:34.158Z,14.30
2023-01-08T03:36:09.665Z,14.30
2023-01-08T03:38:52.854Z,14.20
2023-01-08T03:41:33.007Z,14.20
2023-01-08T03:44:05.576Z,14.20
2023-01-08T03:46:43.669Z,14.10
2023-01-08T03:49:17.665Z,14.10
2023-01-08T03:51:50.038Z,14.10
2023-01-08T03:54:23.260Z,14.00
2023-01-08T03:56:56.151Z,14.00
2023-01-08T03:59:23.620Z,14.00
2023-01-08T04:01:53.726Z,13.90
2023-01-08T04:04:28.217Z,13.90
2023-01-08T04:06:57.569Z,13.90
2023-01-08T04:09:27.105Z,13.80
2023-01-08T04:11:59.600Z,13.80
2023-01-08T04:14:30.311Z,13.70
2023-01-08T04:17:00.004Z,13.70
2023-01-08T04:19:36.951Z,13.70
2023-01-08T04:22:06.432Z,13.60
2023-01-08T04:24:38.321Z,13.60
2023-01-08T04:27:14.008Z,13.60
2023-01-08T04:29:44.230Z,13.50
2023-01-08T04:32:13.105Z,13.50
2023-01-08T04:34:47.747Z,13.40
2023-01-08T04:37:23.641Z,13.40
2023-01-08T04:40:05.800Z,13.40
2023-01-08T04:42:35.241Z,13.30
2023-01-08T04:45:13.478Z,13.30
2023-01-08T04:47:53.513Z,13.30
2023-01-08T04:50:24.857Z,13.30
2023-01-08T04:53:03.096Z,13.20
2023-01-08T04:55:30.054Z,13.10
2023-01-08T04:58:13.096Z,13.20
2023-01-08T05:00:43.607Z,13.10
2023-01-08T05:03:19.407Z,13.10
2023-01-08T05:05:50.055Z,13.00
2023-01-08T05:08:19.086Z,13.00
2023-01-08T05:11:02.694Z,13.00
2023-01-08T05:13:35.024Z,13.00
2023-01-08T05:16:02.333Z,13.00
2023-01-08T05:18:32.710Z,13.00
2023-01-08T05:21:14.334Z,13.00
2023-01-08T05:23:48.399Z,13.00
2023-01-08T05:26:23.753Z,12.90
2023-01-08T05:28:50.980Z,12.90
2023-01-08T05:31:19.714Z,13.00
2023-01-08T05:34:02.123Z,13.00
2023-01-08T05:36:32.360Z,13.20
2023-01-08T05:39:01.896Z,13.20
2023-01-08T05:41:41.935Z,13.00
2023-01-08T05:44:14.405Z,12.90
2023-01-08T05:46:44.212Z,13.20
2023-01-08T05:49:21.094Z,13.00
2023-01-08T05:51:48.747Z,13.00
2023-01-08T05:54:16.141Z,13.00
2023-01-08T05:57:02.529Z,13.00
2023-01-08T05:59:33.527Z,13.00
2023-01-08T06:02:03.014Z,13.00
2023-01-08T06:04:40.290Z,13.00
2023-01-08T06:07:15.978Z,13.00
2023-01-08T06:09:48.798Z,13.00
2023-01-08T06:12:20.121Z,13.00
2023-01-08T06:14:52.522Z,13.00
2023-01-08T06:17:24.324Z,13.00
2023-01-08T06:19:55.797Z,13.00
2023-01-08T06:22:29.348Z,13.00
2023-01-08T06:24:58.886Z,13.00
2023-01-08T06:27:31.509Z,13.10
2023-01-08T06:30:03.058Z,13.00
2023-01-08T06:32:32.460Z,13.00
2023-01-08T06:35:07.522Z,13.10
2023-01-08T06:37:37.677Z,13.10
2023-01-08T06:40:08.913Z,13.10
2023-01-08T06:42:38.242Z,13.10
2023-01-08T06:45:11.941Z,13.10
2023-01-08T06:47:38.979Z,13.10
2023-01-08T06:50:12.851Z,13.10
2023-01-08T06:52:53.637Z,13.10
2023-01-08T06:55:27.635Z,13.10
2023-01-08T06:58:02.878Z,13.00
2023-01-08T07:00:35.751Z,13.00
2023-01-08T07:03:08.320Z,13.00
2023-01-08T07:05:43.566Z,13.00
2023-01-08T07:08:25.035Z,13.00
2023-01-08T07:10:55.744Z,13.00
2023-01-08T07:13:29.651Z,13.00
2023-01-08T07:16:01.641Z,13.00
2023-01-08T07:18:37.174Z,13.00
2023-01-08T07:21:10.958Z,13.00
2023-01-08T07:23:40.957Z,13.00
2023-01-08T07:26:13.421Z,13.00
2023-01-08T07:28:48.707Z,13.00
2023-01-08T07:31:25.763Z,13.00
2023-01-08T07:33:55.223Z,13.00
2023-01-08T07:36:27.881Z,13.00
2023-01-08T07:39:00.730Z,13.00
2023-01-08T07:41:32.257Z,13.00
2023-01-08T07:44:02.664Z,13.00
2023-01-08T07:46:35.981Z,12.90
2023-01-08T07:49:05.531Z,12.90
2023-01-08T07:51:46.672Z,12.90
2023-01-08T07:54:13.779Z,12.90
2023-01-08T07:56:43.337Z,12.90
2023-01-08T07:59:13.535Z,12.90
2023-01-08T08:01:44.701Z,12.90
2023-01-08T08:04:20.331Z,12.90
2023-01-08T08:06:50.409Z,12.90
2023-01-08T08:09:23.313Z,12.90
2023-01-08T08:11:55.868Z,12.90
2023-01-08T08:14:27.243Z,12.90
2023-01-08T08:16:55.916Z,12.90
2023-01-08T08:19:25.415Z,12.90
2023-01-08T08:21:56.751Z,12.90
2023-01-08T08:24:28.115Z,12.90
2023-01-08T08:26:57.709Z,12.90
2023-01-08T08:29:27.537Z,12.90
2023-01-08T08:31:56.873Z,12.90
2023-01-08T08:34:26.605Z,12.90
2023-01-08T08:36:56.497Z,12.90
2023-01-08T08:39:25.540Z,12.90
2023-01-08T08:41:54.509Z,13.00
2023-01-08T08:44:23.726Z,13.00
2023-01-08T08:46:59.549Z,12.90
2023-01-08T08:49:28.389Z,12.90
2023-01-08T08:55:30.756Z,13.00
2023-01-08T08:58:16.737Z,13.00
2023-01-08T09:01:27.261Z,13.00
2023-01-08T09:03:58.914Z,13.00
2023-01-08T09:06:29.575Z,13.00
2023-01-08T09:09:04.721Z,13.00
2023-01-08T09:11:37.647Z,13.10
2023-01-08T09:14:15.207Z,13.10
2023-01-08T09:16:44.215Z,13.10
2023-01-08T09:19:16.240Z,13.00
2023-01-08T09:21:45.137Z,13.10
2023-01-08T09:24:19.508Z,13.00
2023-01-08T09:26:51.814Z,13.10
2023-01-08T09:29:24.495Z,13.00
2023-01-08T09:32:00.403Z,13.00
2023-01-08T09:34:33.339Z,13.00
2023-01-08T09:37:03.337Z,13.00
2023-01-08T09:39:37.869Z,13.00
2023-01-08T09:42:13.643Z,13.00
2023-01-08T09:44:51.014Z,13.00
2023-01-08T09:47:32.613Z,13.00
2023-01-08T09:50:08.471Z,13.10
2023-01-08T09:52:37.486Z,13.00
2023-01-08T09:55:19.302Z,13.00
2023-01-08T09:57:48.077Z,13.00
2023-01-08T10:00:35.884Z,13.10
2023-01-08T10:03:06.456Z,13.10
2023-01-08T10:05:36.500Z,13.10
2023-01-08T10:08:12.416Z,13.10
2023-01-08T10:10:42.862Z,13.10
2023-01-08T10:13:16.276Z,13.10
2023-01-08T10:15:45.455Z,13.10
2023-01-08T10:18:24.598Z,13.10
2023-01-08T10:20:57.594Z,13.10
2023-01-08T10:23:30.240Z,13.10
2023-01-08T10:26:05.797Z,13.10
2023-01-08T10:28:43.093Z,13.10
2023-01-08T10:31:19.202Z,13.00
2023-01-08T10:33:55.002Z,13.10
2023-01-08T10:36:27.689Z,13.10
2023-01-08T10:39:05.385Z,13.10
2023-01-08T10:41:42.529Z,13.10
2023-01-08T10:44:28.150Z,13.10
2023-01-08T10:47:08.962Z,13.10
2023-01-08T10:49:46.705Z,13.10
2023-01-08T10:52:36.442Z,13.00
2023-01-08T10:55:31.749Z,13.10
2023-01-08T10:58:07.182Z,13.10
2023-01-08T11:00:40.875Z,13.10
2023-01-08T11:03:34.285Z,13.10
2023-01-08T11:06:37.042Z,13.10
2023-01-08T11:09:16.677Z,13.10
2023-01-08T11:11:50.268Z,13.20
2023-01-08T11:14:39.350Z,13.10
2023-01-08T11:17:18.189Z,13.20
2023-01-08T11:19:47.883Z,13.10
2023-01-08T11:22:26.241Z,13.20
2023-01-08T11:25:04.731Z,13.20
2023-01-08T11:27:41.373Z,13.20
2023-01-08T11:30:22.035Z,13.20
2023-01-08T11:33:04.554Z,13.30
2023-01-08T11:35:44.279Z,13.30
2023-01-08T11:38:16.341Z,13.20
2023-01-08T11:40:54.672Z,13.30
2023-01-08T11:43:29.688Z,13.30
2023-01-08T11:46:23.475Z,13.30
2023-01-08T11:49:08.514Z,13.40
2023-01-08T11:52:10.375Z,13.40
2023-01-08T11:54:55.338Z,13.40
2023-01-08T11:57:32.717Z,13.40
2023-01-08T12:00:17.968Z,13.40
2023-01-08T12:03:08.591Z,13.40
2023-01-08T12:05:50.247Z,13.40
2023-01-08T12:08:32.731Z,13.40
2023-01-08T12:11:17.426Z,13.40
2023-01-08T12:14:14.611Z,13.40
2023-01-08T12:16:59.851Z,13.40
2023-01-08T12:20:03.164Z,13.40
2023-01-08T12:22:41.783Z,13.50
2023-01-08T12:25:36.607Z,13.50
2023-01-08T12:29:02.592Z,13.50
2023-01-08T12:31:44.246Z,13.60
2023-01-08T12:34:40.526Z,13.60
2023-01-08T12:37:41.010Z,13.70
2023-01-08T12:40:47.467Z,13.70
2023-01-08T12:43:36.238Z,13.70
2023-01-08T12:46:13.795Z,13.70
2023-01-08T12:48:50.787Z,13.70
2023-01-08T12:51:40.782Z,13.80
2023-01-08T12:54:48.430Z,13.80
2023-01-08T12:57:48.481Z,13.80
2023-01-08T13:00:27.876Z,13.80
2023-01-08T13:03:10.237Z,13.80
2023-01-08T13:05:47.119Z,13.80
2023-01-08T13:08:40.679Z,13.80
2023-01-08T13:11:13.089Z,13.80
2023-01-08T13:13:50.361Z,13.80
2023-01-08T13:16:26.324Z,13.80
2023-01-08T13:19:04.644Z,13.90
2023-01-08T13:21:34.121Z,13.90
2023-01-08T13:24:31.935Z,13.90
2023-01-08T13:27:19.536Z,13.90
2023-01-08T13:29:52.516Z,13.90
2023-01-08T13:32:52.939Z,13.90
2023-01-08T13:35:34.572Z,13.90
2023-01-08T13:38:14.155Z,13.90
2023-01-08T13:40:51.230Z,13.90
2023-01-08T13:43:34.470Z,13.90
2023-01-08T13:46:09.119Z,13.90
2023-01-08T13:49:09.258Z,14.00
2023-01-08T13:51:42.915Z,13.90
2023-01-08T13:54:19.559Z,14.00
2023-01-08T13:56:54.551Z,13.90
2023-01-08T13:59:59.551Z,14.00
2023-01-08T14:02:50.096Z,14.00
2023-01-08T14:05:30.134Z,14.00
2023-01-08T14:08:01.637Z,14.00
2023-01-08T14:10:37.862Z,14.00
2023-01-08T14:13:11.881Z,14.00
2023-01-08T14:15:45.370Z,14.00
2023-01-08T14:18:19.952Z,14.10
2023-01-08T14:20:53.267Z,14.00
2023-01-08T14:24:01.040Z,14.00
2023-01-08T14:26:39.605Z,14.00
2023-01-08T14:29:27.367Z,14.00
2023-01-08T14:32:02.672Z,14.00
2023-01-08T14:34:38.694Z,14.00
2023-01-08T14:37:07.465Z,14.00
2023-01-08T14:39:42.986Z,14.00
2023-01-08T14:42:45.103Z,14.00
2023-01-08T14:45:39.300Z,13.80
2023-01-08T14:48:33.052Z,13.80
2023-01-08T14:51:26.147Z,14.00
2023-01-08T14:54:08.718Z,13.90
2023-01-08T14:56:41.807Z,13.90
2023-01-08T14:59:13.775Z,13.90
2023-01-08T15:01:44.027Z,13.90
2023-01-08T15:04:23.710Z,13.90
2023-01-08T15:07:18.426Z,13.90
2023-01-08T15:10:05.653Z,13.90
2023-01-08T15:12:41.880Z,13.90
2023-01-08T15:15:16.540Z,13.90
2023-01-08T15:17:51.814Z,13.90
2023-01-08T15:20:23.872Z,13.90
2023-01-08T15:22:57.990Z,13.90
2023-01-08T15:25:34.165Z,13.80
2023-01-08T15:28:05.853Z,14.00
2023-01-08T15:30:44.670Z,13.80
2023-01-08T15:33:26.321Z,13.80
2023-01-08T15:35:56.100Z,13.80
2023-01-08T15:38:28.497Z,13.70
2023-01-08T15:41:05.821Z,13.70
2023-01-08T15:43:35.983Z,13.70
2023-01-08T15:46:06.494Z,13.60
2023-01-08T15:48:46.489Z,13.60
2023-01-08T15:51:16.525Z,13.60
2023-01-08T15:53:47.729Z,13.60
2023-01-08T15:56:17.876Z,13.60
2023-01-08T15:58:51.793Z,13.50
2023-01-08T16:01:25.455Z,13.50
2023-01-08T16:03:55.491Z,13.50
2023-01-08T16:06:26.821Z,13.50
2023-01-08T16:09:00.396Z,13.40
2023-01-08T16:11:27.880Z,13.20
2023-01-08T16:13:58.095Z,13.40
2023-01-08T16:16:26.935Z,13.40
2023-01-08T16:18:55.146Z,13.40
2023-01-08T16:21:23.834Z,13.40
2023-01-08T16:23:54.611Z,13.40
2023-01-08T16:26:23.020Z,13.30
2023-01-08T16:28:51.743Z,13.30
2023-01-08T16:31:21.438Z,13.30
2023-01-08T16:33:50.973Z,13.30
2023-01-08T16:36:18.211Z,13.20
2023-01-08T16:38:51.316Z,13.20
2023-01-08T16:41:18.344Z,13.20
2023-01-08T16:43:50.887Z,13.10
2023-01-08T16:46:24.881Z,13.10
2023-01-08T16:48:56.802Z,13.10
2023-01-08T16:51:26.012Z,13.10
2023-01-08T16:53:55.199Z,13.10
2023-01-08T16:56:24.719Z,13.00
2023-01-08T16:58:55.660Z,13.00
2023-01-08T17:01:23.927Z,13.00
2023-01-08T17:03:53.103Z,12.90
2023-01-08T17:06:20.293Z,12.90
2023-01-08T17:08:50.041Z,12.90
2023-01-08T17:11:22.053Z,12.90
2023-01-08T17:13:54.217Z,12.90
2023-01-08T17:16:23.396Z,12.80
2023-01-08T17:18:52.319Z,12.80
2023-01-08T17:21:20.954Z,12.80
2023-01-08T17:23:50.926Z,12.80
2023-01-08T17:26:23.390Z,12.80
2023-01-08T17:28:52.712Z,12.80
2023-01-08T17:31:20.626Z,12.80
2023-01-08T17:33:56.887Z,12.80
2023-01-08T17:36:29.181Z,12.70
2023-01-08T17:38:56.432Z,12.70
2023-01-08T17:41:44.184Z,12.70
2023-01-08T17:44:13.650Z,12.70
2023-01-08T17:46:46.054Z,12.70
2023-01-08T17:49:16.062Z,12.70
2023-01-08T17:51:47.692Z,12.60
2023-01-08T17:54:19.800Z,12.70
2023-01-08T17:56:50.399Z,12.60
2023-01-08T17:59:22.332Z,12.40
2023-01-08T18:01:52.793Z,12.60
2023-01-08T18:04:22.233Z,12.60
2023-01-08T18:06:49.385Z,12.60
2023-01-08T18:09:18.742Z,12.60
2023-01-08T18:11:47.693Z,12.50
2023-01-08T18:14:19.783Z,12.50
2023-01-08T18:16:52.523Z,12.50
2023-01-08T18:19:32.108Z,12.50
2023-01-08T18:22:01.712Z,12.50
2023-01-08T18:24:30.376Z,12.50
2023-01-08T18:27:02.740Z,12.50
2023-01-08T18:29:34.352Z,12.50
2023-01-08T18:32:05.164Z,12.70
2023-01-08T18:34:36.034Z,12.50
2023-01-08T18:37:05.419Z,12.50
2023-01-08T18:39:32.708Z,12.50
2023-01-08T18:42:21.189Z,12.50
2023-01-08T18:44:59.112Z,12.50
2023-01-08T18:47:29.027Z,12.50
2023-01-08T18:50:03.305Z,12.50
2023-01-08T18:52:36.416Z,12.50
2023-01-08T18:55:06.500Z,12.50
2023-01-08T18:57:33.455Z,12.50
2023-01-08T19:00:02.778Z,12.50
2023-01-08T19:02:37.943Z,12.60
2023-01-08T19:05:07.964Z,12.50
2023-01-08T19:07:41.716Z,12.50
2023-01-08T19:10:14.192Z,12.50
2023-01-08T19:12:45.824Z,12.50
2023-01-08T19:15:20.319Z,12.50
2023-01-08T19:17:49.671Z,12.50
2023-01-08T19:20:25.245Z,12.60
2023-01-08T19:23:18.216Z,12.50
2023-01-08T19:25:45.332Z,12.50
2023-01-08T19:28:14.883Z,12.50
2023-01-08T19:30:45.828Z,12.60
2023-01-08T19:33:13.228Z,12.50
2023-01-08T19:35:43.146Z,12.50
2023-01-08T19:38:34.477Z,12.50
2023-01-08T19:41:04.897Z,12.50
2023-01-08T19:43:45.292Z,12.50
2023-01-08T19:46:21.005Z,12.50
2023-01-08T19:48:51.647Z,12.50
2023-01-08T19:51:22.362Z,12.50
2023-01-08T19:53:56.576Z,12.50
2023-01-08T19:56:27.867Z,12.40
2023-01-08T19:59:02.124Z,12.40
2023-01-08T20:01:32.245Z,12.30
2023-01-08T20:04:04.305Z,12.40
2023-01-08T20:06:33.832Z,12.40
2023-01-08T20:09:04.045Z,12.40
2023-01-08T20:11:40.136Z,12.40
2023-01-08T20:14:08.077Z,12.40
2023-01-08T20:16:39.339Z,12.40
2023-01-08T20:19:15.367Z,12.40
2023-01-08T20:21:49.344Z,12.40
2023-01-08T20:24:22.537Z,12.40
2023-01-08T20:27:00.645Z,12.40
2023-01-08T20:29:30.635Z,12.40
2023-01-08T20:32:02.587Z,12.40
2023-01-08T20:34:37.848Z,12.40
2023-01-08T20:37:13.529Z,12.40
2023-01-08T20:39:47.246Z,12.40
2023-01-08T20:42:34.029Z,12.50
2023-01-08T20:45:05.122Z,12.50
2023-01-08T20:47:40.719Z,12.50
2023-01-08T20:50:19.945Z,12.40
2023-01-08T20:53:28.029Z,12.40
2023-01-08T20:56:00.572Z,12.50
2023-01-08T20:58:48.673Z,12.40
2023-01-08T21:01:27.205Z,12.40
2023-01-08T21:03:56.860Z,12.40
2023-01-08T21:06:28.675Z,12.40
2023-01-08T21:08:59.598Z,12.40
2023-01-08T21:11:30.182Z,12.40
2023-01-08T21:13:59.549Z,12.40
2023-01-08T21:16:31.937Z,12.40
2023-01-08T21:19:02.543Z,12.40
2023-01-08T21:21:40.726Z,12.40
2023-01-08T21:26:55.271Z,12.40
2023-01-08T21:29:26.274Z,12.40
2023-01-08T21:31:53.701Z,12.40
2023-01-08T21:34:26.831Z,12.40
2023-01-08T21:37:07.390Z,12.40
2023-01-08T21:40:00.275Z,12.40
2023-01-08T21:42:47.647Z,12.40
2023-01-08T21:45:31.762Z,12.40
2023-01-08T21:48:02.581Z,12.40
2023-01-08T21:50:39.159Z,12.40
2023-01-08T21:53:28.523Z,12.40
2023-01-08T21:56:03.676Z,12.40
2023-01-08T21:58:35.075Z,12.40
2023-01-08T22:01:15.303Z,12.40
2023-01-08T22:03:51.347Z,12.40
2023-01-08T22:06:22.121Z,12.40
2023-01-08T22:09:05.285Z,12.40
2023-01-08T22:11:40.808Z,12.40
2023-01-08T22:14:13.550Z,12.40
2023-01-08T22:16:45.908Z,12.40
2023-01-08T22:19:16.190Z,12.30
2023-01-08T22:21:51.140Z,12.40
2023-01-08T22:24:21.843Z,12.40
2023-01-08T22:27:10.421Z,12.40
2023-01-08T22:29:48.942Z,12.40
2023-01-08T22:32:25.394Z,12.40
2023-01-08T22:35:02.680Z,12.40
2023-01-08T22:37:45.353Z,12.80
2023-01-08T22:40:34.983Z,12.40
2023-01-08T22:43:11.173Z,12.40
2023-01-08T22:45:59.980Z,12.40
2023-01-08T22:51:59.366Z,12.40
2023-01-08T22:54:31.798Z,12.40
2023-01-08T22:57:04.295Z,12.50
2023-01-08T22:59:47.174Z,12.50
2023-01-08T23:02:33.695Z,12.40
2023-01-08T23:08:13.513Z,12.50
2023-01-08T23:13:55.518Z,12.40
2023-01-08T23:20:12.446Z,12.40
2023-01-08T23:28:12.098Z,12.40
2023-01-08T23:30:57.287Z,12.40
2023-01-08T23:33:29.781Z,12.50
2023-01-08T23:36:08.498Z,12.40
2023-01-08T23:38:41.434Z,12.40
2023-01-08T23:41:10.948Z,12.40
2023-01-08T23:43:52.993Z,12.30
2023-01-08T23:46:41.927Z,12.40
2023-01-08T23:49:15.010Z,12.50
2023-01-08T23:51:50.092Z,12.50
2023-01-08T23:57:45.593Z,12.40
